createdAt,value
2019-02-07T00:04:15.395Z,74.50
2019-02-07T00:09:01.391Z,69.40
2019-02-07T00:13:47.461Z,64.10
2019-02-07T00:18:33.462Z,74.13
2019-02-07T00:23:19.545Z,72.27
2019-02-07T00:28:05.496Z,66.57
2019-02-07T00:32:51.490Z,77.50
2019-02-07T00:37:37.334Z,64.63
2019-02-07T00:42:23.159Z,87.93
2019-02-07T00:47:08.926Z,86.20
2019-02-07T00:51:55.585Z,98.83
2019-02-07T00:56:41.858Z,93.80
2019-02-07T01:01:28.107Z,100.10
2019-02-07T01:06:14.388Z,92.17
2019-02-07T01:11:00.580Z,85.23
2019-02-07T01:15:47.160Z,90.13
2019-02-07T01:20:32.993Z,95.47
2019-02-07T01:25:20.730Z,106.00
2019-02-07T01:30:08.403Z,104.23
2019-02-07T01:34:54.211Z,97.97
2019-02-07T01:39:40.083Z,95.70
2019-02-07T01:44:25.919Z,111.40
2019-02-07T01:49:11.860Z,107.00
2019-02-07T01:53:58.032Z,94.80
2019-02-07T01:58:44.111Z,91.20
2019-02-07T02:03:30.281Z,90.53
2019-02-07T02:08:16.286Z,85.43
2019-02-07T02:13:02.698Z,78.03
2019-02-07T02:17:49.208Z,83.97
2019-02-07T02:22:35.291Z,80.47
2019-02-07T02:27:21.210Z,85.00
2019-02-07T02:32:07.334Z,79.97
2019-02-07T02:36:53.231Z,78.03
2019-02-07T02:41:39.247Z,83.87
2019-02-07T02:46:25.092Z,70.33
2019-02-07T02:51:11.305Z,73.37
2019-02-07T02:55:59.819Z,80.10
2019-02-07T03:01:14.239Z,86.93
2019-02-07T03:06:37.537Z,79.00
2019-02-07T03:11:51.973Z,77.97
2019-02-07T03:16:55.365Z,73.20
2019-02-07T03:21:59.388Z,77.60
2019-02-07T03:26:56.522Z,66.30
2019-02-07T03:31:52.304Z,84.60
2019-02-07T03:36:56.987Z,75.37
2019-02-07T03:42:01.545Z,92.70
2019-02-07T03:47:12.235Z,79.13
2019-02-07T03:52:23.308Z,89.60
2019-02-07T03:57:26.824Z,86.93
2019-02-07T04:02:31.634Z,76.13
2019-02-07T04:07:42.658Z,77.50
2019-02-07T04:12:47.075Z,88.90
2019-02-07T04:17:55.058Z,75.27
2019-02-07T04:22:53.042Z,76.17
2019-02-07T04:27:52.824Z,84.80
2019-02-07T04:33:16.692Z,77.83
2019-02-07T04:38:21.470Z,68.53
2019-02-07T04:43:25.285Z,79.13
2019-02-07T04:48:32.863Z,81.87
2019-02-07T04:53:52.966Z,84.10
2019-02-07T04:58:56.732Z,82.43
2019-02-07T05:04:04.469Z,82.67
2019-02-07T05:08:58.431Z,100.73
2019-02-07T05:14:02.004Z,81.67
2019-02-07T05:19:06.996Z,72.07
2019-02-07T05:24:16.234Z,82.33
2019-02-07T05:29:21.124Z,75.27
2019-02-07T05:34:32.322Z,92.43
2019-02-07T05:39:35.372Z,95.03
2019-02-07T05:44:42.979Z,102.37
2019-02-07T05:49:47.631Z,100.50
2019-02-07T05:54:58.439Z,111.30
2019-02-07T06:00:06.968Z,85.13
2019-02-07T06:05:06.502Z,94.60
2019-02-07T06:10:13.977Z,100.00
2019-02-07T06:15:30.757Z,98.90
2019-02-07T06:20:34.058Z,87.13
2019-02-07T06:25:38.761Z,96.50
2019-02-07T06:30:43.326Z,97.20
2019-02-07T06:35:45.590Z,99.60
2019-02-07T06:40:48.966Z,72.87
2019-02-07T06:45:52.087Z,88.77
2019-02-07T06:51:10.002Z,84.47
2019-02-07T06:56:15.045Z,83.97
2019-02-07T07:01:34.878Z,96.07
2019-02-07T07:06:34.034Z,76.93
2019-02-07T07:11:38.763Z,84.90
2019-02-07T07:16:40.355Z,120.00
2019-02-07T07:21:51.126Z,121.07
2019-02-07T07:26:55.597Z,109.03
2019-02-07T07:32:00.159Z,94.90
2019-02-07T07:37:05.813Z,105.80
2019-02-07T07:42:08.993Z,97.03
2019-02-07T07:47:19.799Z,100.10
2019-02-07T07:52:29.587Z,97.73
2019-02-07T07:57:32.762Z,99.43
2019-02-07T08:02:32.763Z,116.67
2019-02-07T08:07:36.604Z,105.57
2019-02-07T08:12:39.084Z,119.33
2019-02-07T08:17:47.688Z,106.27
2019-02-07T08:23:07.856Z,109.67
2019-02-07T08:28:12.684Z,114.67
2019-02-07T08:33:17.174Z,107.77
2019-02-07T08:38:33.946Z,101.83
2019-02-07T08:43:32.954Z,88.87
2019-02-07T08:48:56.409Z,87.70
2019-02-07T08:53:59.242Z,83.40
2019-02-07T08:59:05.333Z,86.70
2019-02-07T09:04:19.085Z,88.27
2019-02-07T09:09:19.631Z,68.90
2019-02-07T09:14:23.578Z,70.87
2019-02-07T09:19:26.888Z,60.03
2019-02-07T09:24:30.242Z,57.60
2019-02-07T09:29:33.796Z,62.37
2019-02-07T09:34:44.511Z,53.07
2019-02-07T09:39:56.339Z,51.23
2019-02-07T09:44:59.967Z,53.83
2019-02-07T09:50:04.710Z,57.67
2019-02-07T09:55:19.242Z,49.43
2019-02-07T10:00:12.590Z,44.43
2019-02-07T10:05:16.110Z,50.33
2019-02-07T10:10:33.214Z,51.17
2019-02-07T10:15:36.963Z,45.57
2019-02-07T10:20:56.869Z,54.80
2019-02-07T10:26:00.152Z,49.93
2019-02-07T10:30:59.893Z,52.37
2019-02-07T10:36:07.800Z,47.73
2019-02-07T10:41:16.533Z,49.70
2019-02-07T10:46:21.694Z,40.10
2019-02-07T10:51:20.443Z,50.53
2019-02-07T10:56:28.673Z,51.90
2019-02-07T11:01:27.070Z,43.23
2019-02-07T11:06:38.027Z,58.50
2019-02-07T11:11:48.670Z,54.97
2019-02-07T11:16:53.580Z,56.03
2019-02-07T11:22:10.548Z,55.80
2019-02-07T11:27:15.225Z,54.83
2019-02-07T11:32:17.238Z,51.30
2019-02-07T11:37:20.794Z,53.20
2019-02-07T11:42:33.144Z,58.03
2019-02-07T11:47:44.465Z,57.63
2019-02-07T11:52:54.295Z,50.60
2019-02-07T11:57:48.487Z,58.90
2019-02-07T12:02:51.936Z,49.73
2019-02-07T12:07:56.786Z,53.37
2019-02-07T12:12:55.385Z,52.37
2019-02-07T12:17:59.959Z,60.80
2019-02-07T12:23:10.503Z,57.87
2019-02-07T12:28:18.470Z,63.23
2019-02-07T12:33:22.007Z,66.37
2019-02-07T12:38:26.009Z,62.83
2019-02-07T12:43:39.909Z,70.27
2019-02-07T12:48:43.067Z,70.97
2019-02-07T12:53:50.581Z,69.03
2019-02-07T12:58:54.174Z,74.83
2019-02-07T13:03:57.815Z,71.53
2019-02-07T13:08:58.369Z,76.43
2019-02-07T13:14:01.895Z,80.53
2019-02-07T13:19:12.599Z,67.93
2019-02-07T13:24:23.256Z,57.83
2019-02-07T13:29:40.199Z,51.03
2019-02-07T13:34:43.411Z,59.00
2019-02-07T13:39:46.861Z,57.03
2019-02-07T13:45:00.466Z,67.77
2019-02-07T13:50:20.225Z,67.50
2019-02-07T13:55:24.721Z,68.53
2019-02-07T14:00:35.223Z,65.87
2019-02-07T14:05:38.729Z,68.23
2019-02-07T14:10:48.360Z,74.50
2019-02-07T14:15:59.864Z,64.53
2019-02-07T14:21:03.074Z,72.37
2019-02-07T14:26:07.804Z,68.53
2019-02-07T14:31:11.535Z,77.80
2019-02-07T14:36:28.757Z,74.23
2019-02-07T14:41:29.340Z,79.17
2019-02-07T14:46:33.968Z,73.03
2019-02-07T14:51:20.047Z,64.80
2019-02-07T14:56:06.204Z,70.17
2019-02-07T15:00:52.005Z,75.33
2019-02-07T15:05:38.208Z,70.87
2019-02-07T15:10:24.275Z,73.47
2019-02-07T15:15:12.280Z,69.67
2019-02-07T15:19:58.396Z,76.23
2019-02-07T15:24:44.333Z,85.93
2019-02-07T15:29:30.654Z,83.40
2019-02-07T15:34:17.107Z,85.10
2019-02-07T15:39:04.942Z,98.83
2019-02-07T15:43:50.855Z,92.10
2019-02-07T15:48:36.847Z,92.77
2019-02-07T15:53:24.066Z,82.50
2019-02-07T15:58:10.135Z,90.37
2019-02-07T16:03:01.050Z,82.03
2019-02-07T16:07:47.600Z,80.50
2019-02-07T16:12:33.535Z,83.57
2019-02-07T16:17:19.373Z,87.57
2019-02-07T16:22:05.659Z,83.57
2019-02-07T16:26:51.875Z,102.90
2019-02-07T16:31:38.123Z,128.33
2019-02-07T16:36:24.050Z,130.83
2019-02-07T16:41:10.785Z,102.73
2019-02-07T16:45:56.929Z,96.20
2019-02-07T16:50:43.246Z,101.07
2019-02-07T16:55:29.933Z,107.73
2019-02-07T17:00:26.182Z,90.13
2019-02-07T17:05:14.241Z,99.30
2019-02-07T17:10:00.321Z,93.30
2019-02-07T17:14:46.455Z,97.67
2019-02-07T17:19:33.067Z,93.20
2019-02-07T17:24:19.466Z,97.10
2019-02-07T17:29:05.586Z,86.43
2019-02-07T17:33:51.547Z,84.53
2019-02-07T17:38:37.902Z,73.30
2019-02-07T17:43:24.246Z,77.17
2019-02-07T17:48:10.292Z,79.57
2019-02-07T17:52:56.456Z,72.00
2019-02-07T17:57:42.518Z,76.47
2019-02-07T18:02:28.588Z,74.53
2019-02-07T18:07:14.837Z,76.03
2019-02-07T18:12:00.815Z,57.83
2019-02-07T18:16:46.631Z,93.07
2019-02-07T18:21:34.361Z,101.80
2019-02-07T18:26:20.184Z,93.03
2019-02-07T18:31:06.372Z,89.07
2019-02-07T18:35:52.415Z,103.70
2019-02-07T18:40:38.803Z,94.63
2019-02-07T18:45:25.053Z,97.00
2019-02-07T18:50:16.058Z,90.87
2019-02-07T18:55:02.097Z,90.60
2019-02-07T18:59:48.016Z,89.07
2019-02-07T19:04:34.108Z,87.87
2019-02-07T19:09:21.549Z,87.77
2019-02-07T19:14:08.124Z,94.87
2019-02-07T19:18:54.406Z,101.93
2019-02-07T19:23:40.926Z,104.00
2019-02-07T19:28:27.399Z,100.07
2019-02-07T19:33:14.217Z,101.93
2019-02-07T19:38:00.525Z,88.50
2019-02-07T19:42:46.949Z,116.57
2019-02-07T19:47:33.410Z,104.17
2019-02-07T19:52:19.539Z,101.47
2019-02-07T19:57:06.830Z,82.10
2019-02-07T20:01:53.155Z,107.50
2019-02-07T20:06:41.576Z,105.50
2019-02-07T20:11:27.795Z,110.60
2019-02-07T20:16:14.080Z,108.77
2019-02-07T20:21:00.138Z,150.83
2019-02-07T20:25:46.419Z,130.63
2019-02-07T20:30:34.670Z,121.97
2019-02-07T20:35:21.193Z,130.73
2019-02-07T20:40:09.710Z,147.67
2019-02-07T20:44:55.687Z,100.27
2019-02-07T20:49:41.850Z,131.17
2019-02-07T20:54:28.300Z,123.43
2019-02-07T20:59:15.007Z,160.70
2019-02-07T21:04:01.142Z,187.53
2019-02-07T21:08:47.197Z,133.33
2019-02-07T21:13:33.454Z,134.27
2019-02-07T21:18:20.079Z,101.10
2019-02-07T21:23:06.903Z,100.33
2019-02-07T21:27:53.138Z,94.60
2019-02-07T21:32:39.174Z,114.70
2019-02-07T21:37:25.747Z,112.17
2019-02-07T21:42:12.066Z,107.97
2019-02-07T21:46:58.570Z,85.00
2019-02-07T21:51:44.578Z,95.97
2019-02-07T21:56:30.829Z,94.53
2019-02-07T22:01:17.069Z,104.70
2019-02-07T22:06:03.376Z,110.10
2019-02-07T22:10:49.261Z,124.87
2019-02-07T22:15:35.574Z,128.50
2019-02-07T22:20:23.326Z,91.83
2019-02-07T22:25:09.458Z,91.40
2019-02-07T22:29:55.798Z,128.53
2019-02-07T22:34:42.697Z,128.57
2019-02-07T22:39:29.231Z,98.60
2019-02-07T22:44:15.630Z,88.43
2019-02-07T22:49:02.120Z,104.10
2019-02-07T22:53:48.453Z,127.63
2019-02-07T22:58:34.966Z,113.17
2019-02-07T23:03:21.224Z,95.63
2019-02-07T23:08:07.544Z,58.20
2019-02-07T23:12:53.563Z,52.50
2019-02-07T23:17:40.202Z,40.30
2019-02-07T23:22:26.576Z,30.23
2019-02-07T23:27:12.339Z,34.87
2019-02-07T23:31:58.273Z,26.30
2019-02-07T23:36:44.213Z,18.33
2019-02-07T23:41:30.151Z,12.80
2019-02-07T23:46:16.194Z,16.90
2019-02-07T23:51:02.609Z,11.93
2019-02-07T23:55:48.342Z,20.10
